Metar z połowy godziny Komunikat METAR ze strony awiacja.imgw.pl Metar G00 EPBY METAR EPBY 230830Z 30012KT 9999 SCT021 BKN025 08/01 Q1019=